Etusivu
METAR-TAF:

METAR-TAF

Lentoasemat :

Kédougou, Senegal

Leveyspiiri: 12-34N, Pituuspiiri: 012-13W, korkeus merenpinnasta: 178 m

Tämänhetkinen sää

Tämä raportti tehtiin 3 tuntia ja 9 minuuttia sitten, kello 03.00 UTC
Tuuli 4 kn kaakosta
Lämpötila 27°C
Kosteus 26%
Ilmanpaine 1009 hPa
Näkyvyys 10 km tai enemmän
ei pilviä alle 1500 m:ssä eikä cumulonimbus-pilviä

METAR: GOTK 270300Z 14004KT CAVOK 27/06 Q1009

Aika: 06:09 (06:09 UTC)


TAF: puuttuu

Säähavainnot ja -ennusteet yli 4000 lentoasemalta (METAR- ja TAF-raportit).

Käytössä olevat sääasemat on merkitty karttaan keltaisilla ja punaisilla pisteillä.

Aseta hiiri pisteen päälle nähdäksesi sääaseman nimen.

Klikkaa sitten nähdäksesi säähavainnot ja -ennusteet.

Kartan vaihtaminen: klikkaa mustalla rastilla varustettuja vihreitä pisteitä, niin voit zoomata sisään; viivalla varustettua vihreää pistettä, niin voit zoomata ulos tai vihreitä nuolia, niin pääset viereisille kartoille.


METAR-TAF: